createdAt,value
2022-09-01T00:01:49.962Z,2.22
2022-09-01T00:04:20.362Z,2.20
2022-09-01T00:06:48.471Z,2.08
2022-09-01T00:09:19.522Z,1.98
2022-09-01T00:11:53.524Z,1.80
2022-09-01T00:14:30.225Z,2.25
2022-09-01T00:17:05.402Z,1.73
2022-09-01T00:19:33.617Z,2.30
2022-09-01T00:22:01.083Z,2.45
2022-09-01T00:24:29.409Z,2.65
2022-09-01T00:26:57.275Z,2.72
2022-09-01T00:29:26.329Z,2.90
2022-09-01T00:31:53.673Z,2.53
2022-09-01T00:34:21.545Z,1.60
2022-09-01T00:36:49.006Z,1.60
2022-09-01T00:39:16.456Z,1.67
2022-09-01T00:41:44.947Z,2.05
2022-09-01T00:44:16.806Z,2.05
2022-09-01T00:46:55.199Z,1.90
2022-09-01T00:49:46.906Z,1.30
2022-09-01T00:52:18.863Z,2.30
2022-09-01T00:54:50.671Z,1.67
2022-09-01T00:57:17.980Z,1.67
2022-09-01T01:00:11.682Z,2.10
2022-09-01T01:02:41.056Z,1.60
2022-09-01T01:05:14.355Z,1.70
2022-09-01T01:07:46.022Z,1.98
2022-09-01T01:10:17.799Z,1.63
2022-09-01T01:12:45.321Z,1.60
2022-09-01T01:15:13.969Z,1.27
2022-09-01T01:17:41.424Z,1.85
2022-09-01T01:20:28.504Z,1.75
2022-09-01T01:23:11.288Z,1.98
2022-09-01T01:25:45.514Z,1.77
2022-09-01T01:28:16.993Z,1.58
2022-09-01T01:30:52.385Z,1.38
2022-09-01T01:33:23.415Z,1.48
2022-09-01T01:35:53.272Z,1.60
2022-09-01T01:38:23.182Z,1.77
2022-09-01T01:40:53.986Z,2.10
2022-09-01T01:43:23.944Z,2.63
2022-09-01T01:45:53.651Z,1.63
2022-09-01T01:48:25.199Z,1.42
2022-09-01T01:50:55.025Z,1.40
2022-09-01T01:53:23.280Z,1.30
2022-09-01T01:55:51.972Z,1.85
2022-09-01T01:58:21.494Z,1.70
2022-09-01T02:00:50.784Z,1.33
2022-09-01T02:03:22.052Z,1.70
2022-09-01T02:05:53.811Z,1.27
2022-09-01T02:08:26.145Z,1.55
2022-09-01T02:10:55.556Z,2.10
2022-09-01T02:13:31.019Z,1.83
2022-09-01T02:16:13.239Z,2.15
2022-09-01T02:18:48.258Z,1.33
2022-09-01T02:21:20.559Z,1.98
2022-09-01T02:23:59.564Z,1.75
2022-09-01T02:26:39.662Z,1.95
2022-09-01T02:29:18.123Z,1.67
2022-09-01T02:31:47.271Z,2.17
2022-09-01T02:34:15.016Z,1.70
2022-09-01T02:36:48.366Z,1.60
2022-09-01T02:39:26.556Z,1.88
2022-09-01T02:41:54.052Z,1.70
2022-09-01T02:44:27.888Z,1.88
2022-09-01T02:46:56.053Z,1.90
2022-09-01T02:49:26.462Z,2.50
2022-09-01T02:52:01.519Z,2.28
2022-09-01T02:54:32.206Z,1.83
2022-09-01T02:57:00.418Z,2.55
2022-09-01T02:59:29.879Z,2.97
2022-09-01T03:02:00.747Z,2.08
2022-09-01T03:04:29.151Z,1.40
2022-09-01T03:06:59.058Z,2.15
2022-09-01T03:09:26.434Z,1.90
2022-09-01T03:11:55.256Z,2.03
2022-09-01T03:14:24.951Z,1.98
2022-09-01T03:16:52.469Z,1.77
2022-09-01T03:19:20.380Z,1.85
2022-09-01T03:21:48.794Z,2.13
2022-09-01T03:24:21.991Z,1.88
2022-09-01T03:26:51.011Z,1.77
2022-09-01T03:29:19.647Z,1.42
2022-09-01T03:31:47.162Z,1.60
2022-09-01T03:34:19.305Z,2.15
2022-09-01T03:36:50.959Z,1.52
2022-09-01T03:39:26.738Z,1.35
2022-09-01T03:41:56.509Z,1.70
2022-09-01T03:44:24.167Z,2.13
2022-09-01T03:46:52.718Z,2.08
2022-09-01T03:49:24.999Z,1.85
2022-09-01T03:51:55.347Z,2.00
2022-09-01T03:54:27.417Z,1.90
2022-09-01T03:56:55.269Z,1.30
2022-09-01T03:59:25.754Z,1.92
2022-09-01T04:01:52.934Z,1.45
2022-09-01T04:04:21.054Z,2.78
2022-09-01T04:06:49.152Z,1.52
2022-09-01T04:09:16.408Z,2.05
2022-09-01T04:11:46.950Z,2.17
2022-09-01T04:14:16.426Z,2.00
2022-09-01T04:17:03.361Z,1.73
2022-09-01T04:19:36.970Z,1.77
2022-09-01T04:22:05.465Z,1.63
2022-09-01T04:24:45.348Z,2.40
2022-09-01T04:27:13.867Z,1.90
2022-09-01T04:29:41.893Z,1.85
2022-09-01T04:32:13.132Z,2.20
2022-09-01T04:34:43.707Z,1.75
2022-09-01T04:37:18.856Z,1.70
2022-09-01T04:39:56.894Z,2.10
2022-09-01T04:42:27.524Z,2.67
2022-09-01T04:44:57.625Z,2.25
2022-09-01T04:47:31.643Z,2.30
2022-09-01T04:50:13.884Z,1.92
2022-09-01T04:52:48.003Z,2.85
2022-09-01T04:55:30.046Z,1.98
2022-09-01T04:57:59.655Z,2.20
2022-09-01T05:00:31.888Z,1.80
2022-09-01T05:06:14.775Z,2.33
2022-09-01T05:08:47.284Z,1.88
2022-09-01T05:11:26.002Z,2.10
2022-09-01T05:13:59.594Z,1.85
2022-09-01T05:16:28.028Z,1.80
2022-09-01T05:18:58.108Z,2.00
2022-09-01T05:21:30.595Z,2.05
2022-09-01T05:24:01.566Z,1.92
2022-09-01T05:26:32.104Z,2.25
2022-09-01T05:29:03.447Z,1.90
2022-09-01T05:31:38.159Z,2.37
2022-09-01T05:34:09.671Z,1.80
2022-09-01T05:36:41.961Z,2.00
2022-09-01T05:39:12.182Z,3.03
2022-09-01T05:41:42.895Z,2.55
2022-09-01T05:44:11.850Z,2.78
2022-09-01T05:46:39.979Z,3.03
2022-09-01T05:49:13.641Z,1.58
2022-09-01T05:51:45.969Z,1.90
2022-09-01T05:54:23.322Z,2.15
2022-09-01T05:56:53.730Z,2.38
2022-09-01T05:59:26.233Z,2.10
2022-09-01T06:02:09.881Z,2.22
2022-09-01T06:04:42.209Z,2.08
2022-09-01T06:07:16.484Z,2.75
2022-09-01T06:09:53.822Z,2.08
2022-09-01T06:12:24.977Z,2.40
2022-09-01T06:14:55.115Z,2.03
2022-09-01T06:17:25.832Z,1.98
2022-09-01T06:22:25.729Z,1.50
2022-09-01T06:24:59.522Z,2.05
2022-09-01T06:27:33.200Z,2.05
2022-09-01T06:30:00.465Z,2.25
2022-09-01T06:32:28.063Z,1.88
2022-09-01T06:34:58.315Z,2.15
2022-09-01T06:37:26.881Z,2.67
2022-09-01T06:39:58.394Z,1.80
2022-09-01T06:42:26.447Z,1.80
2022-09-01T06:44:59.861Z,2.20
2022-09-01T06:47:29.124Z,1.65
2022-09-01T06:49:59.404Z,2.13
2022-09-01T06:52:28.224Z,1.80
2022-09-01T06:54:56.348Z,2.25
2022-09-01T07:00:21.186Z,1.95
2022-09-01T07:02:55.728Z,2.70
2022-09-01T07:14:28.491Z,2.17
2022-09-01T07:17:23.278Z,2.67
2022-09-01T07:19:48.597Z,2.42
2022-09-01T07:25:12.753Z,2.38
2022-09-01T07:28:01.025Z,2.33
2022-09-01T07:30:29.136Z,1.83
2022-09-01T07:33:41.455Z,2.33
2022-09-01T07:36:25.611Z,1.60
2022-09-01T07:39:48.187Z,1.73
2022-09-01T07:44:44.098Z,2.60
2022-09-01T07:47:56.092Z,2.53
2022-09-01T07:50:40.416Z,2.28
2022-09-01T07:53:09.679Z,2.05
2022-09-01T07:55:42.255Z,2.20
2022-09-01T07:58:12.345Z,1.85
2022-09-01T08:00:43.327Z,2.15
2022-09-01T08:03:10.689Z,2.78
2022-09-01T08:05:38.888Z,2.63
2022-09-01T08:08:18.669Z,1.45
2022-09-01T08:10:53.581Z,2.28
2022-09-01T08:13:22.319Z,1.70
2022-09-01T08:18:52.846Z,1.33
2022-09-01T08:21:27.923Z,1.83
2022-09-01T08:24:02.944Z,2.22
2022-09-01T08:26:32.909Z,1.65
2022-09-01T08:29:03.802Z,2.00
2022-09-01T08:31:36.528Z,1.90
2022-09-01T08:34:07.043Z,2.00
2022-09-01T08:36:35.392Z,1.65
2022-09-01T08:39:03.158Z,1.70
2022-09-01T08:41:47.265Z,1.88
2022-09-01T08:44:39.812Z,2.60
2022-09-01T08:47:15.542Z,3.03
2022-09-01T08:49:47.443Z,2.80
2022-09-01T08:52:32.649Z,2.92
2022-09-01T08:55:25.973Z,2.00
2022-09-01T08:57:59.832Z,1.52
2022-09-01T09:00:30.683Z,2.40
2022-09-01T09:03:13.596Z,2.30
2022-09-01T09:06:11.156Z,1.63
2022-09-01T09:09:00.948Z,1.73
2022-09-01T09:11:28.485Z,1.60
2022-09-01T09:14:08.019Z,2.65
2022-09-01T09:16:45.509Z,2.25
2022-09-01T09:19:54.253Z,1.77
2022-09-01T09:22:21.837Z,2.03
2022-09-01T09:24:56.291Z,2.40
2022-09-01T09:27:29.986Z,2.10
2022-09-01T09:30:05.904Z,2.30
2022-09-01T09:35:45.824Z,1.90
2022-09-01T09:38:21.558Z,1.58
2022-09-01T09:41:17.932Z,1.83
2022-09-01T09:43:52.040Z,1.88
2022-09-01T09:46:43.645Z,2.03
2022-09-01T09:49:36.416Z,2.40
2022-09-01T09:52:19.184Z,2.20
2022-09-01T09:55:19.278Z,1.70
2022-09-01T09:57:46.463Z,1.70
2022-09-01T10:00:26.982Z,2.25
2022-09-01T10:03:07.894Z,1.90
2022-09-01T10:05:44.348Z,1.73
2022-09-01T10:08:16.357Z,2.30
2022-09-01T10:10:57.533Z,2.17
2022-09-01T10:13:29.246Z,2.85
2022-09-01T10:16:11.134Z,2.03
2022-09-01T10:18:42.242Z,1.60
2022-09-01T10:21:15.794Z,1.73
2022-09-01T10:23:44.815Z,1.75
2022-09-01T10:26:26.166Z,2.50
2022-09-01T10:29:06.546Z,1.98
2022-09-01T10:31:34.783Z,3.33
2022-09-01T10:34:05.697Z,1.23
2022-09-01T10:36:35.942Z,1.52
2022-09-01T10:39:08.839Z,1.52
2022-09-01T10:42:00.194Z,1.55
2022-09-01T10:44:34.503Z,1.58
2022-09-01T10:47:24.867Z,2.25
2022-09-01T10:49:52.091Z,2.45
2022-09-01T10:52:41.075Z,1.70
2022-09-01T10:55:41.328Z,1.50
2022-09-01T11:01:49.877Z,1.10
2022-09-01T11:04:23.282Z,1.08
2022-09-01T11:07:29.668Z,1.38
2022-09-01T11:10:36.100Z,1.35
2022-09-01T11:13:40.990Z,1.33
2022-09-01T11:19:37.991Z,1.33
2022-09-01T11:22:22.549Z,1.40
2022-09-01T11:25:12.205Z,1.40
2022-09-01T11:27:49.050Z,1.27
2022-09-01T11:30:52.868Z,1.40
2022-09-01T11:33:46.477Z,2.05
2022-09-01T11:36:36.566Z,1.25
2022-09-01T11:39:20.814Z,1.20
2022-09-01T11:42:00.776Z,0.93
2022-09-01T11:45:04.441Z,1.58
2022-09-01T11:47:45.185Z,1.30
2022-09-01T11:50:35.371Z,0.88
2022-09-01T11:53:10.203Z,0.90
2022-09-01T11:55:46.079Z,1.42
2022-09-01T11:58:39.433Z,1.77
2022-09-01T12:01:31.982Z,1.88
2022-09-01T12:04:26.616Z,1.23
2022-09-01T12:07:11.173Z,1.63
2022-09-01T12:09:48.212Z,1.80
2022-09-01T12:12:34.292Z,2.00
2022-09-01T12:15:23.911Z,1.80
2022-09-01T12:17:52.357Z,1.73
2022-09-01T12:20:29.804Z,1.23
2022-09-01T12:23:00.045Z,1.25
2022-09-01T12:25:33.281Z,1.45
2022-09-01T12:28:07.450Z,1.42
2022-09-01T12:30:40.720Z,1.65
2022-09-01T12:33:26.751Z,1.52
2022-09-01T12:36:16.710Z,1.60
2022-09-01T12:38:43.996Z,1.55
2022-09-01T12:42:01.029Z,1.45
2022-09-01T12:44:36.951Z,1.20
2022-09-01T12:47:11.281Z,1.73
2022-09-01T12:49:50.345Z,1.38
2022-09-01T12:52:22.171Z,1.35
2022-09-01T12:54:53.511Z,1.23
2022-09-01T12:57:34.961Z,1.30
2022-09-01T13:00:11.786Z,1.50
2022-09-01T13:03:00.810Z,1.92
2022-09-01T13:05:32.699Z,1.70
2022-09-01T13:08:22.811Z,2.00
2022-09-01T13:10:53.786Z,1.63
2022-09-01T13:13:24.369Z,1.35
2022-09-01T13:15:54.119Z,1.70
2022-09-01T13:18:23.955Z,1.88
2022-09-01T13:20:53.303Z,1.70
2022-09-01T13:23:21.498Z,1.35
2022-09-01T13:25:49.622Z,1.27
2022-09-01T13:28:18.137Z,1.40
2022-09-01T13:31:28.422Z,1.48
2022-09-01T13:36:43.499Z,1.35
2022-09-01T13:39:13.243Z,1.90
2022-09-01T13:41:42.272Z,2.08
2022-09-01T13:44:10.506Z,1.73
2022-09-01T13:46:59.085Z,2.03
2022-09-01T13:52:13.320Z,2.30
2022-09-01T13:54:40.757Z,2.95
2022-09-01T13:57:07.957Z,2.00
2022-09-01T13:59:35.364Z,2.75
2022-09-01T14:02:02.739Z,2.35
2022-09-01T14:04:30.237Z,1.58
2022-09-01T14:06:59.837Z,1.88
2022-09-01T14:09:28.359Z,2.08
2022-09-01T14:11:57.157Z,2.22
2022-09-01T14:14:24.721Z,2.40
2022-09-01T14:16:52.339Z,2.40
2022-09-01T14:19:19.987Z,2.00
2022-09-01T14:21:47.425Z,2.22
2022-09-01T14:24:19.087Z,1.85
2022-09-01T14:26:47.290Z,2.55
2022-09-01T14:29:14.928Z,2.15
2022-09-01T14:31:43.517Z,2.00
2022-09-01T14:34:12.411Z,2.42
2022-09-01T14:36:39.701Z,2.50
2022-09-01T14:39:07.025Z,2.30
2022-09-01T14:41:34.676Z,2.22
2022-09-01T14:44:03.453Z,2.65
2022-09-01T14:46:34.465Z,2.65
2022-09-01T14:49:02.793Z,2.92
2022-09-01T14:54:22.226Z,2.42
2022-09-01T14:59:38.074Z,2.30
2022-09-01T15:02:06.211Z,1.95
2022-09-01T15:04:34.279Z,2.25
2022-09-01T15:07:05.066Z,2.08
2022-09-01T15:09:32.635Z,2.00
2022-09-01T15:12:00.027Z,2.58
2022-09-01T15:14:27.334Z,2.00
2022-09-01T15:16:54.881Z,2.40
2022-09-01T15:19:22.166Z,2.95
2022-09-01T15:21:49.455Z,2.00
2022-09-01T15:24:18.629Z,2.60
2022-09-01T15:26:46.814Z,2.17
2022-09-01T15:29:15.171Z,2.83
2022-09-01T15:31:44.442Z,2.35
2022-09-01T15:34:13.878Z,2.00
2022-09-01T15:36:42.453Z,2.60
2022-09-01T15:39:10.605Z,2.60
2022-09-01T15:41:38.994Z,2.78
2022-09-01T15:44:08.515Z,2.85
2022-09-01T15:46:39.233Z,2.00
2022-09-01T15:49:10.278Z,2.70
2022-09-01T15:51:42.695Z,3.58
2022-09-01T15:54:19.128Z,2.67
2022-09-01T15:56:47.284Z,2.35
2022-09-01T15:59:15.305Z,2.28
2022-09-01T16:01:45.684Z,1.85
2022-09-01T16:04:19.949Z,2.72
2022-09-01T16:06:52.770Z,2.58
2022-09-01T16:09:21.291Z,2.58
2022-09-01T16:11:48.468Z,2.17
2022-09-01T16:14:16.223Z,2.67
2022-09-01T16:17:03.243Z,2.58
2022-09-01T16:19:46.028Z,2.13
2022-09-01T16:22:34.825Z,2.33
2022-09-01T16:25:14.023Z,3.03
2022-09-01T16:27:44.068Z,2.20
2022-09-01T16:30:19.306Z,2.30
2022-09-01T16:32:49.614Z,2.33
2022-09-01T16:35:19.826Z,2.65
2022-09-01T16:38:17.233Z,2.83
2022-09-01T16:40:52.797Z,2.95
2022-09-01T16:43:24.300Z,2.20
2022-09-01T16:46:12.716Z,2.43
2022-09-01T16:49:07.370Z,2.97
2022-09-01T16:52:00.386Z,2.70
2022-09-01T16:54:50.834Z,3.10
2022-09-01T16:57:41.431Z,2.75
2022-09-01T17:00:13.272Z,3.03
2022-09-01T17:03:08.398Z,2.53
2022-09-01T17:05:57.006Z,2.45
2022-09-01T17:08:34.323Z,3.03
2022-09-01T17:11:10.409Z,2.88
2022-09-01T17:13:41.559Z,2.90
2022-09-01T17:16:23.319Z,3.00
2022-09-01T17:18:55.205Z,2.97
2022-09-01T17:21:45.139Z,2.83
2022-09-01T17:24:21.749Z,3.15
2022-09-01T17:26:52.525Z,2.63
2022-09-01T17:29:45.192Z,3.08
2022-09-01T17:32:34.766Z,2.65
2022-09-01T17:35:32.180Z,2.28
2022-09-01T17:38:32.785Z,3.10
2022-09-01T17:41:25.047Z,3.05
2022-09-01T17:44:00.200Z,2.70
2022-09-01T17:46:40.415Z,3.13
2022-09-01T17:49:30.740Z,3.42
2022-09-01T17:52:03.919Z,3.75
2022-09-01T17:55:08.493Z,3.88
2022-09-01T17:58:04.890Z,3.40
2022-09-01T18:00:50.881Z,3.13
2022-09-01T18:03:34.449Z,3.03
2022-09-01T18:06:09.958Z,3.03
2022-09-01T18:08:47.998Z,3.72
2022-09-01T18:11:21.475Z,3.85
2022-09-01T18:13:53.967Z,3.22
2022-09-01T18:16:29.819Z,3.92
2022-09-01T18:19:03.920Z,3.40
2022-09-01T18:21:36.380Z,3.53
2022-09-01T18:24:32.546Z,3.55
2022-09-01T18:27:01.706Z,3.63
2022-09-01T18:29:31.559Z,4.70
2022-09-01T18:32:19.141Z,5.32
2022-09-01T18:35:11.788Z,5.28
2022-09-01T18:40:34.948Z,4.10
2022-09-01T18:43:17.624Z,6.25
2022-09-01T18:46:09.047Z,4.38
2022-09-01T18:48:54.787Z,4.80
2022-09-01T18:51:54.334Z,5.30
2022-09-01T18:54:44.558Z,4.60
2022-09-01T18:57:18.023Z,4.88
2022-09-01T18:59:59.914Z,5.72
2022-09-01T19:02:36.146Z,5.13
2022-09-01T19:05:20.686Z,5.82
2022-09-01T19:07:59.236Z,4.45
2022-09-01T19:10:53.237Z,5.50
2022-09-01T19:13:31.631Z,4.60
2022-09-01T19:16:46.428Z,4.57
2022-09-01T19:19:32.237Z,5.47
2022-09-01T19:21:59.552Z,4.10
2022-09-01T19:24:38.210Z,4.25
2022-09-01T19:27:13.187Z,5.35
2022-09-01T19:29:48.997Z,4.55
2022-09-01T19:32:20.188Z,4.38
2022-09-01T19:35:05.099Z,5.28
2022-09-01T19:37:32.531Z,5.53
2022-09-01T19:40:01.041Z,4.80
2022-09-01T19:42:55.156Z,4.65
2022-09-01T19:45:38.023Z,4.90
2022-09-01T19:48:20.527Z,5.10
2022-09-01T19:53:42.412Z,5.00
2022-09-01T19:56:16.832Z,4.65
2022-09-01T19:58:52.287Z,5.20
2022-09-01T20:01:40.138Z,4.72
2022-09-01T20:04:26.939Z,5.75
2022-09-01T20:07:00.268Z,6.07
2022-09-01T20:09:30.590Z,6.22
2022-09-01T20:12:22.552Z,5.03
2022-09-01T20:15:10.707Z,4.68
2022-09-01T20:17:48.363Z,3.17
2022-09-01T20:20:31.329Z,4.82
2022-09-01T20:23:13.283Z,2.63
2022-09-01T20:25:53.071Z,3.00
2022-09-01T20:28:32.404Z,2.95
2022-09-01T20:31:06.136Z,3.28
2022-09-01T20:34:04.929Z,2.70
2022-09-01T20:36:48.957Z,2.50
2022-09-01T20:39:55.510Z,2.30
2022-09-01T20:42:38.365Z,2.58
2022-09-01T20:45:10.659Z,2.38
2022-09-01T20:50:11.748Z,2.20
2022-09-01T20:52:48.085Z,2.50
2022-09-01T20:55:26.199Z,2.30
2022-09-01T20:57:57.301Z,3.22
2022-09-01T21:00:26.779Z,2.58
2022-09-01T21:03:34.134Z,3.33
2022-09-01T21:06:09.614Z,2.08
2022-09-01T21:08:58.750Z,2.15
2022-09-01T21:11:52.169Z,2.20
2022-09-01T21:14:25.211Z,2.22
2022-09-01T21:17:21.779Z,2.10
2022-09-01T21:20:15.672Z,2.40
2022-09-01T21:22:43.244Z,2.67
2022-09-01T21:25:11.047Z,2.05
2022-09-01T21:27:51.367Z,2.30
2022-09-01T21:30:20.155Z,2.35
2022-09-01T21:32:47.438Z,2.75
2022-09-01T21:35:18.473Z,3.40
2022-09-01T21:37:45.674Z,2.67
2022-09-01T21:40:14.834Z,3.30
2022-09-01T21:43:09.088Z,2.95
2022-09-01T21:45:38.382Z,2.42
2022-09-01T21:48:06.413Z,2.05
2022-09-01T21:50:34.219Z,2.78
2022-09-01T21:53:01.600Z,2.35
2022-09-01T21:55:29.703Z,2.80
2022-09-01T21:57:56.846Z,2.72
2022-09-01T22:00:27.356Z,2.60
2022-09-01T22:02:57.688Z,2.97
2022-09-01T22:05:26.250Z,2.75
2022-09-01T22:07:56.084Z,3.97
2022-09-01T22:10:26.044Z,4.50
2022-09-01T22:12:54.274Z,3.92
2022-09-01T22:15:23.958Z,4.70
2022-09-01T22:17:52.442Z,3.75
2022-09-01T22:20:22.448Z,3.00
2022-09-01T22:22:50.910Z,3.72
2022-09-01T22:25:21.445Z,3.92
2022-09-01T22:27:48.789Z,4.35
2022-09-01T22:30:16.851Z,4.28
2022-09-01T22:32:45.439Z,4.78
2022-09-01T22:35:14.733Z,3.83
2022-09-01T22:37:42.124Z,3.85
2022-09-01T22:40:10.730Z,4.97
2022-09-01T22:42:38.696Z,5.65
2022-09-01T22:45:08.636Z,4.45
2022-09-01T22:47:37.093Z,4.38
2022-09-01T22:50:08.468Z,4.35
2022-09-01T22:52:36.574Z,5.70
2022-09-01T22:55:04.700Z,6.30
2022-09-01T22:57:32.915Z,6.65
2022-09-01T23:00:01.060Z,6.95
2022-09-01T23:02:28.604Z,5.75
2022-09-01T23:04:55.920Z,8.55
2022-09-01T23:07:23.341Z,6.28
2022-09-01T23:09:50.674Z,7.20
2022-09-01T23:12:17.819Z,7.15
2022-09-01T23:14:45.110Z,6.68
2022-09-01T23:17:12.439Z,6.85
2022-09-01T23:19:39.682Z,6.97
2022-09-01T23:22:06.836Z,5.32
2022-09-01T23:24:34.000Z,4.65
2022-09-01T23:27:01.263Z,4.15
2022-09-01T23:29:28.487Z,4.00
2022-09-01T23:31:56.502Z,4.57
2022-09-01T23:34:23.801Z,4.57
2022-09-01T23:36:50.982Z,3.70
2022-09-01T23:39:18.215Z,3.95
2022-09-01T23:41:45.512Z,3.53
2022-09-01T23:44:13.111Z,3.45
2022-09-01T23:46:46.367Z,3.45
2022-09-01T23:49:16.268Z,3.15
2022-09-01T23:51:45.519Z,3.42
2022-09-01T23:54:13.466Z,3.20
2022-09-01T23:56:41.162Z,3.60
2022-09-01T23:59:08.626Z,3.40
